createdAt,value
2022-09-10T00:03:32.010Z,96813.28
2022-09-10T00:07:29.896Z,96807.22
2022-09-10T00:11:32.378Z,96817.94
2022-09-10T00:15:29.476Z,96799.88
2022-09-10T00:19:26.563Z,96788.13
2022-09-10T00:23:29.816Z,96808.00
2022-09-10T00:27:27.196Z,96793.34
2022-09-10T00:31:24.602Z,96802.94
2022-09-10T00:35:22.023Z,96772.16
2022-09-10T00:39:20.575Z,96810.63
2022-09-10T00:43:21.527Z,96792.19
2022-09-10T00:47:37.439Z,96778.09
2022-09-10T00:51:38.860Z,96779.91
2022-09-10T00:55:40.717Z,96789.50
2022-09-10T00:59:43.082Z,96767.50
2022-09-10T01:03:43.451Z,96755.78
2022-09-10T01:07:41.017Z,96772.22
2022-09-10T01:12:05.708Z,96785.53
2022-09-10T01:16:34.607Z,96770.53
2022-09-10T01:20:59.975Z,96794.78
2022-09-10T01:25:16.262Z,96795.84
2022-09-10T01:29:24.496Z,96775.59
2022-09-10T01:33:46.498Z,96796.03
2022-09-10T01:38:04.796Z,96764.84
2022-09-10T01:42:02.225Z,96762.56
2022-09-10T01:46:41.627Z,96779.31
2022-09-10T01:51:05.855Z,96781.16
2022-09-10T01:55:14.938Z,96786.09
2022-09-10T01:59:31.390Z,96789.94
2022-09-10T02:03:30.711Z,96785.50
2022-09-10T02:07:32.125Z,96752.94
2022-09-10T02:11:30.121Z,96779.59
2022-09-10T02:15:32.615Z,96768.22
2022-09-10T02:19:43.563Z,96778.59
2022-09-10T02:23:50.578Z,96776.63
2022-09-10T02:27:47.642Z,96765.31
2022-09-10T02:31:45.149Z,96774.00
2022-09-10T02:35:44.559Z,96777.88
2022-09-10T02:39:41.619Z,96767.56
2022-09-10T02:43:38.704Z,96759.84
2022-09-10T02:47:35.925Z,96752.66
2022-09-10T02:51:33.375Z,96754.34
2022-09-10T02:55:31.612Z,96740.38
2022-09-10T02:59:29.215Z,96757.88
2022-09-10T03:03:28.940Z,96765.22
2022-09-10T03:07:26.050Z,96749.47
2022-09-10T03:11:24.279Z,96766.44
2022-09-10T03:15:22.950Z,96756.25
2022-09-10T03:19:21.065Z,96755.84
2022-09-10T03:23:18.956Z,96751.22
2022-09-10T03:27:18.151Z,96734.41
2022-09-10T03:31:18.268Z,96764.44
2022-09-10T03:35:18.713Z,96733.16
2022-09-10T03:39:16.540Z,96703.97
2022-09-10T03:43:15.454Z,96745.94
2022-09-10T03:47:13.173Z,96712.97
2022-09-10T03:51:10.983Z,96745.44
2022-09-10T03:55:10.520Z,96752.94
2022-09-10T03:59:09.042Z,96732.34
2022-09-10T04:03:06.344Z,96748.44
2022-09-10T04:07:05.113Z,96752.66
2022-09-10T04:11:03.861Z,96751.28
2022-09-10T04:15:04.227Z,96749.47
2022-09-10T04:19:02.019Z,96739.09
2022-09-10T04:23:00.408Z,96752.50
2022-09-10T04:26:57.773Z,96730.22
2022-09-10T04:30:54.985Z,96729.44
2022-09-10T04:34:55.057Z,96744.09
2022-09-10T04:38:52.333Z,96737.56
2022-09-10T04:42:49.436Z,96745.41
2022-09-10T04:46:47.948Z,96757.44
2022-09-10T04:51:05.455Z,96710.97
2022-09-10T04:55:08.580Z,96726.28
2022-09-10T04:59:05.715Z,96764.88
2022-09-10T05:03:07.840Z,96747.63
2022-09-10T05:07:08.359Z,96740.88
2022-09-10T05:11:05.567Z,96770.41
2022-09-10T05:15:04.167Z,96762.81
2022-09-10T05:19:01.348Z,96746.88
2022-09-10T05:23:00.477Z,96756.53
2022-09-10T05:26:59.779Z,96752.00
2022-09-10T05:30:56.855Z,96750.97
2022-09-10T05:34:56.673Z,96763.28
2022-09-10T05:38:57.292Z,96794.16
2022-09-10T05:42:55.072Z,96764.59
2022-09-10T05:46:52.905Z,96749.13
2022-09-10T05:50:51.203Z,96785.94
2022-09-10T05:54:48.387Z,96777.25
2022-09-10T05:58:45.938Z,96780.78
2022-09-10T06:02:45.935Z,96791.09
2022-09-10T06:06:57.162Z,96785.19
2022-09-10T06:11:00.541Z,96730.28
2022-09-10T06:15:01.353Z,96798.81
2022-09-10T06:18:59.553Z,96785.72
2022-09-10T06:22:57.362Z,96776.38
2022-09-10T06:26:54.613Z,96812.75
2022-09-10T06:30:54.263Z,96800.81
2022-09-10T06:34:51.406Z,96761.88
2022-09-10T06:38:50.597Z,96778.81
2022-09-10T06:42:48.600Z,96795.78
2022-09-10T06:51:07.757Z,96811.06
2022-09-10T06:55:07.189Z,96795.13
2022-09-10T06:59:10.961Z,96794.19
2022-09-10T07:03:16.430Z,96805.19
2022-09-10T07:07:13.671Z,96777.81
2022-09-10T07:11:14.167Z,96789.06
2022-09-10T07:15:12.106Z,96783.16
2022-09-10T07:19:09.833Z,96767.06
2022-09-10T07:23:13.663Z,96775.09
2022-09-10T07:27:12.013Z,96826.69
2022-09-10T07:31:18.327Z,96818.56
2022-09-10T07:35:17.383Z,96835.75
2022-09-10T07:39:14.869Z,96813.38
2022-09-10T07:43:12.790Z,96833.50
2022-09-10T07:47:10.194Z,96796.19
2022-09-10T07:51:09.303Z,96829.69
2022-09-10T07:55:07.599Z,96794.22
2022-09-10T07:59:07.379Z,96809.53
2022-09-10T08:03:12.619Z,96834.78
2022-09-10T08:07:10.093Z,96850.81
2022-09-10T08:11:18.903Z,96826.88
2022-09-10T08:15:19.895Z,96845.75
2022-09-10T08:19:18.319Z,96820.69
2022-09-10T08:23:16.643Z,96828.50
2022-09-10T08:27:14.549Z,96845.09
2022-09-10T08:31:12.936Z,96831.91
2022-09-10T08:35:16.769Z,96851.41
2022-09-10T08:39:14.710Z,96808.25
2022-09-10T08:43:13.205Z,96858.66
2022-09-10T08:47:26.009Z,96869.63
2022-09-10T08:51:41.704Z,96852.19
2022-09-10T08:55:45.048Z,96853.88
2022-09-10T08:59:50.243Z,96854.88
2022-09-10T09:03:48.823Z,96853.28
2022-09-10T09:07:48.455Z,96868.50
2022-09-10T09:12:03.795Z,96878.69
2022-09-10T09:16:54.599Z,96853.66
2022-09-10T09:21:00.982Z,96866.75
2022-09-10T09:25:13.401Z,96871.41
2022-09-10T09:29:22.070Z,96862.34
2022-09-10T09:33:23.691Z,96858.72
2022-09-10T09:37:31.357Z,96852.38
2022-09-10T09:41:55.131Z,96836.84
2022-09-10T09:45:54.086Z,96838.06
2022-09-10T09:49:52.119Z,96844.13
2022-09-10T09:54:18.451Z,96866.22
2022-09-10T09:58:26.871Z,96862.88
2022-09-10T10:02:26.290Z,96854.38
2022-09-10T10:06:33.433Z,96851.47
2022-09-10T10:10:30.468Z,96826.38
2022-09-10T10:14:42.270Z,96831.09
2022-09-10T10:18:43.935Z,96857.28
2022-09-10T10:22:50.759Z,96830.22
2022-09-10T10:26:48.770Z,96802.75
2022-09-10T10:30:59.593Z,96817.28
2022-09-10T10:35:39.250Z,96832.69
2022-09-10T10:40:14.629Z,96829.50
2022-09-10T10:44:52.097Z,96820.56
2022-09-10T10:48:57.745Z,96800.44
2022-09-10T10:53:22.544Z,96813.34
2022-09-10T10:57:43.843Z,96824.53
2022-09-10T11:01:51.850Z,96805.59
2022-09-10T11:06:00.877Z,96825.41
2022-09-10T11:10:14.877Z,96824.84
2022-09-10T11:14:48.700Z,96826.16
2022-09-10T11:19:31.375Z,96790.50
2022-09-10T11:23:47.021Z,96809.81
2022-09-10T11:27:51.546Z,96780.50
2022-09-10T11:32:06.306Z,96814.78
2022-09-10T11:36:31.233Z,96815.41
2022-09-10T11:40:35.229Z,96822.41
2022-09-10T11:44:53.188Z,96822.09
2022-09-10T11:49:03.642Z,96828.34
2022-09-10T11:53:02.422Z,96822.63
2022-09-10T11:57:09.906Z,96829.97
2022-09-10T12:01:41.928Z,96829.16
2022-09-10T12:06:03.836Z,96818.94
2022-09-10T12:10:20.975Z,96808.91
2022-09-10T12:14:21.725Z,96798.31
2022-09-10T12:18:45.025Z,96794.03
2022-09-10T12:22:43.453Z,96798.88
2022-09-10T12:26:45.458Z,96763.44
2022-09-10T12:30:42.615Z,96807.84
2022-09-10T12:34:41.001Z,96810.22
2022-09-10T12:38:54.328Z,96806.66
2022-09-10T12:42:51.955Z,96787.56
2022-09-10T12:46:49.039Z,96784.47
2022-09-10T12:51:00.562Z,96774.47
2022-09-10T12:55:27.252Z,96776.69
2022-09-10T12:59:52.572Z,96793.06
2022-09-10T13:03:56.958Z,96787.13
2022-09-10T13:08:07.233Z,96758.81
2022-09-10T13:12:18.865Z,96740.25
2022-09-10T13:16:40.693Z,96730.91
2022-09-10T13:20:38.062Z,96721.63
2022-09-10T13:24:35.697Z,96730.69
2022-09-10T13:28:35.242Z,96737.09
2022-09-10T13:33:00.152Z,96739.22
2022-09-10T13:37:22.146Z,96710.44
2022-09-10T13:41:57.939Z,96737.44
2022-09-10T13:46:08.282Z,96719.28
2022-09-10T13:50:23.106Z,96730.50
2022-09-10T13:54:38.253Z,96740.31
2022-09-10T13:58:51.367Z,96723.44
2022-09-10T14:02:55.427Z,96718.19
2022-09-10T14:07:00.738Z,96726.47
2022-09-10T14:11:00.672Z,96729.16
2022-09-10T14:15:05.432Z,96686.53
2022-09-10T14:19:12.337Z,96706.31
2022-09-10T14:23:19.115Z,96706.56
2022-09-10T14:27:25.989Z,96718.00
2022-09-10T14:31:26.668Z,96727.75
2022-09-10T14:35:49.759Z,96704.97
2022-09-10T14:39:47.598Z,96723.28
2022-09-10T14:43:44.746Z,96708.91
2022-09-10T14:47:52.280Z,96692.03
2022-09-10T14:51:49.334Z,96726.72
2022-09-10T14:55:46.297Z,96726.03
2022-09-10T14:59:46.415Z,96708.94
2022-09-10T15:03:43.495Z,96722.19
2022-09-10T15:07:42.896Z,96704.88
2022-09-10T15:12:05.175Z,96715.97
2022-09-10T15:16:03.385Z,96725.38
2022-09-10T15:20:01.597Z,96723.19
2022-09-10T15:23:58.518Z,96688.09
2022-09-10T15:27:55.483Z,96724.44
2022-09-10T15:31:52.654Z,96728.56
2022-09-10T15:35:49.950Z,96715.13
2022-09-10T15:39:47.188Z,96726.34
2022-09-10T15:43:44.267Z,96717.81
2022-09-10T15:47:41.989Z,96726.97
2022-09-10T15:51:39.555Z,96679.47
2022-09-10T15:55:38.326Z,96700.16
2022-09-10T15:59:35.367Z,96716.09
2022-09-10T16:03:32.424Z,96728.53
2022-09-10T16:07:29.624Z,96731.97
2022-09-10T16:11:29.084Z,96715.16
2022-09-10T16:15:26.601Z,96742.56
2022-09-10T16:19:23.599Z,96731.44
2022-09-10T16:23:21.110Z,96698.56
2022-09-10T16:27:18.399Z,96746.47
2022-09-10T16:31:16.710Z,96755.31
2022-09-10T16:35:13.748Z,96752.13
2022-09-10T16:39:13.988Z,96769.19
2022-09-10T16:43:13.587Z,96775.97
2022-09-10T16:47:10.571Z,96777.09
2022-09-10T16:51:14.685Z,96761.53
2022-09-10T16:55:12.015Z,96769.72
2022-09-10T16:59:23.755Z,96730.63
2022-09-10T17:03:23.257Z,96780.91
2022-09-10T17:07:20.403Z,96757.06
2022-09-10T17:11:20.031Z,96776.94
2022-09-10T17:15:17.040Z,96733.44
2022-09-10T17:19:18.612Z,96750.94
2022-09-10T17:23:18.717Z,96736.16
2022-09-10T17:27:15.816Z,96770.44
2022-09-10T17:31:12.903Z,96734.06
2022-09-10T17:35:11.287Z,96758.50
2022-09-10T17:39:12.019Z,96769.28
2022-09-10T17:43:08.965Z,96747.50
2022-09-10T17:47:06.032Z,96770.09
2022-09-10T17:51:03.468Z,96713.47
2022-09-10T17:55:03.339Z,96784.16
2022-09-10T17:59:03.957Z,96793.19
2022-09-10T18:03:01.029Z,96788.00
2022-09-10T18:06:57.991Z,96770.34
2022-09-10T18:11:08.579Z,96793.19
2022-09-10T18:15:06.628Z,96796.22
2022-09-10T18:19:13.858Z,96803.34
2022-09-10T18:23:11.461Z,96813.19
2022-09-10T18:27:08.465Z,96774.84
2022-09-10T18:31:05.798Z,96805.97
2022-09-10T18:35:02.813Z,96825.59
2022-09-10T18:39:04.428Z,96816.84
2022-09-10T18:43:01.518Z,96807.03
2022-09-10T18:46:58.646Z,96837.22
2022-09-10T18:50:55.716Z,96832.13
2022-09-10T18:54:52.986Z,96833.03
2022-09-10T18:58:52.058Z,96784.56
2022-09-10T19:02:49.410Z,96817.66
2022-09-10T19:06:48.405Z,96798.06
2022-09-10T19:10:45.486Z,96824.06
2022-09-10T19:14:42.554Z,96828.41
2022-09-10T19:18:39.951Z,96814.91
2022-09-10T19:22:37.773Z,96823.97
2022-09-10T19:26:35.106Z,96820.66
2022-09-10T19:30:38.247Z,96783.13
2022-09-10T19:34:35.205Z,96803.03
2022-09-10T19:38:37.822Z,96824.28
2022-09-10T19:42:35.091Z,96811.19
2022-09-10T19:46:33.528Z,96814.16
2022-09-10T19:50:30.934Z,96826.78
2022-09-10T19:54:28.659Z,96837.84
2022-09-10T19:58:25.619Z,96820.19
2022-09-10T20:02:22.671Z,96828.75
2022-09-10T20:06:24.034Z,96829.69
2022-09-10T20:10:21.031Z,96824.34
2022-09-10T20:14:19.743Z,96833.50
2022-09-10T20:18:16.775Z,96780.22
2022-09-10T20:22:13.905Z,96812.38
2022-09-10T20:26:16.732Z,96829.50
2022-09-10T20:30:13.803Z,96823.22
2022-09-10T20:34:16.185Z,96815.50
2022-09-10T20:38:13.139Z,96819.38
2022-09-10T20:42:10.641Z,96805.94
2022-09-10T20:46:18.758Z,96822.81
2022-09-10T20:50:16.567Z,96826.69
2022-09-10T20:54:18.238Z,96810.78
2022-09-10T20:58:16.774Z,96831.50
2022-09-10T21:02:13.806Z,96829.34
2022-09-10T21:06:13.899Z,96824.34
2022-09-10T21:10:10.864Z,96839.97
2022-09-10T21:14:11.947Z,96838.00
2022-09-10T21:18:09.694Z,96838.00
2022-09-10T21:22:06.743Z,96824.50
2022-09-10T21:26:05.178Z,96824.81
2022-09-10T21:30:04.222Z,96831.34
2022-09-10T21:34:03.461Z,96842.75
2022-09-10T21:38:01.146Z,96840.81
2022-09-10T21:41:59.765Z,96813.78
2022-09-10T21:45:56.723Z,96845.09
2022-09-10T21:49:54.040Z,96828.97
2022-09-10T21:53:56.471Z,96849.50
2022-09-10T21:57:53.439Z,96827.75
2022-09-10T22:01:50.541Z,96841.34
2022-09-10T22:05:47.612Z,96828.56
2022-09-10T22:09:44.612Z,96842.22
2022-09-10T22:13:43.316Z,96855.09
2022-09-10T22:17:40.302Z,96837.94
2022-09-10T22:21:38.344Z,96840.81
2022-09-10T22:25:35.356Z,96818.75
2022-09-10T22:29:32.347Z,96835.78
2022-09-10T22:33:29.288Z,96837.13
2022-09-10T22:37:26.255Z,96844.13
2022-09-10T22:41:23.307Z,96825.75
2022-09-10T22:45:21.149Z,96825.34
2022-09-10T22:49:18.144Z,96843.91
2022-09-10T22:53:15.203Z,96796.19
2022-09-10T22:57:12.178Z,96832.72
2022-09-10T23:01:16.284Z,96839.69
2022-09-10T23:05:13.361Z,96826.94
2022-09-10T23:09:16.750Z,96815.41
2022-09-10T23:13:13.692Z,96809.50
2022-09-10T23:17:10.670Z,96805.69
2022-09-10T23:21:08.673Z,96808.97
2022-09-10T23:25:06.417Z,96808.31
2022-09-10T23:29:06.078Z,96834.50
2022-09-10T23:33:03.029Z,96818.72
2022-09-10T23:37:00.043Z,96846.19
2022-09-10T23:40:59.324Z,96806.78
2022-09-10T23:44:56.277Z,96827.06
2022-09-10T23:48:53.651Z,96770.66
2022-09-10T23:52:53.182Z,96768.78
2022-09-10T23:56:50.233Z,96824.13
